sensor_id;sensor_type;location;lat;lon;timestamp;pressure;altitude;pressure_sealevel;temperature;humidity
13593;BME280;6867;50.998;4.250;2023-05-28T00:00:43;101759.16;;;14.25;74.19
13593;BME280;6867;50.998;4.250;2023-05-28T00:03:10;101751.06;;;14.18;74.68
13593;BME280;6867;50.998;4.250;2023-05-28T00:05:37;101752.53;;;14.14;74.62
13593;BME280;6867;50.998;4.250;2023-05-28T00:08:04;101752.72;;;14.06;75.10
13593;BME280;6867;50.998;4.250;2023-05-28T00:10:30;101754.59;;;13.99;75.77
13593;BME280;6867;50.998;4.250;2023-05-28T00:12:57;101760.19;;;13.97;75.88
13593;BME280;6867;50.998;4.250;2023-05-28T00:15:24;101755.81;;;13.96;76.18
13593;BME280;6867;50.998;4.250;2023-05-28T00:17:52;101760.59;;;13.94;76.19
13593;BME280;6867;50.998;4.250;2023-05-28T00:20:19;101748.53;;;13.83;76.46
13593;BME280;6867;50.998;4.250;2023-05-28T00:22:46;101740.84;;;13.87;76.49
13593;BME280;6867;50.998;4.250;2023-05-28T00:25:13;101742.91;;;13.78;76.02
13593;BME280;6867;50.998;4.250;2023-05-28T00:27:39;101739.97;;;13.66;76.33
13593;BME280;6867;50.998;4.250;2023-05-28T00:30:07;101735.41;;;13.60;76.33
13593;BME280;6867;50.998;4.250;2023-05-28T00:32:34;101740.16;;;13.58;76.19
13593;BME280;6867;50.998;4.250;2023-05-28T00:35:02;101742.88;;;13.52;76.82
13593;BME280;6867;50.998;4.250;2023-05-28T00:37:29;101742.84;;;13.45;76.67
13593;BME280;6867;50.998;4.250;2023-05-28T00:39:55;101745.72;;;13.37;76.94
13593;BME280;6867;50.998;4.250;2023-05-28T00:42:22;101750.88;;;13.32;77.20
13593;BME280;6867;50.998;4.250;2023-05-28T00:44:49;101739.22;;;13.25;77.32
13593;BME280;6867;50.998;4.250;2023-05-28T00:47:16;101737.72;;;13.15;77.50
13593;BME280;6867;50.998;4.250;2023-05-28T00:49:43;101742.94;;;13.17;77.58
13593;BME280;6867;50.998;4.250;2023-05-28T00:52:12;101739.38;;;13.16;77.68
13593;BME280;6867;50.998;4.250;2023-05-28T00:54:39;101742.94;;;13.17;78.11
13593;BME280;6867;50.998;4.250;2023-05-28T00:57:06;101750.16;;;13.16;78.85
13593;BME280;6867;50.998;4.250;2023-05-28T00:59:33;101747.69;;;13.15;79.33
13593;BME280;6867;50.998;4.250;2023-05-28T01:02:01;101738.09;;;13.12;79.74
13593;BME280;6867;50.998;4.250;2023-05-28T01:04:27;101745.78;;;13.09;79.62
13593;BME280;6867;50.998;4.250;2023-05-28T01:06:54;101746.81;;;13.08;79.97
13593;BME280;6867;50.998;4.250;2023-05-28T01:09:25;101745.19;;;13.13;79.62
13593;BME280;6867;50.998;4.250;2023-05-28T01:11:52;101750.53;;;13.07;80.17
13593;BME280;6867;50.998;4.250;2023-05-28T01:14:20;101747.63;;;13.02;80.43
13593;BME280;6867;50.998;4.250;2023-05-28T01:16:48;101741.78;;;12.98;80.44
13593;BME280;6867;50.998;4.250;2023-05-28T01:19:16;101741.78;;;12.98;80.59
13593;BME280;6867;50.998;4.250;2023-05-28T01:21:45;101736.41;;;12.98;80.10
13593;BME280;6867;50.998;4.250;2023-05-28T01:24:14;101744.06;;;12.94;80.31
13593;BME280;6867;50.998;4.250;2023-05-28T01:26:41;101745.91;;;12.94;81.05
13593;BME280;6867;50.998;4.250;2023-05-28T01:29:15;101746.78;;;13.01;80.96
13593;BME280;6867;50.998;4.250;2023-05-28T01:31:43;101738.06;;;12.99;80.85
13593;BME280;6867;50.998;4.250;2023-05-28T01:34:10;101740.75;;;12.99;81.06
13593;BME280;6867;50.998;4.250;2023-05-28T01:36:42;101740.56;;;13.01;81.26
13593;BME280;6867;50.998;4.250;2023-05-28T01:39:13;101745.75;;;13.02;81.46
13593;BME280;6867;50.998;4.250;2023-05-28T01:41:41;101732.88;;;12.98;81.84
13593;BME280;6867;50.998;4.250;2023-05-28T01:44:08;101741.41;;;13.01;81.71
13593;BME280;6867;50.998;4.250;2023-05-28T01:46:38;101738.06;;;12.99;81.81
13593;BME280;6867;50.998;4.250;2023-05-28T01:49:05;101742.59;;;12.92;82.34
13593;BME280;6867;50.998;4.250;2023-05-28T01:51:32;101738.63;;;12.88;82.37
13593;BME280;6867;50.998;4.250;2023-05-28T01:54:00;101735.09;;;12.87;82.38
13593;BME280;6867;50.998;4.250;2023-05-28T01:56:28;101740.25;;;12.82;82.22
13593;BME280;6867;50.998;4.250;2023-05-28T01:58:55;101742.09;;;12.75;82.31
13593;BME280;6867;50.998;4.250;2023-05-28T02:01:27;101745.63;;;12.76;82.37
13593;BME280;6867;50.998;4.250;2023-05-28T02:03:54;101738.75;;;12.73;82.67
13593;BME280;6867;50.998;4.250;2023-05-28T02:06:21;101731.88;;;12.70;82.31
13593;BME280;6867;50.998;4.250;2023-05-28T02:08:48;101732.06;;;12.62;82.26
13593;BME280;6867;50.998;4.250;2023-05-28T02:11:15;101727.44;;;12.56;82.12
13593;BME280;6867;50.998;4.250;2023-05-28T02:13:43;101728.25;;;12.50;82.08
13593;BME280;6867;50.998;4.250;2023-05-28T02:16:09;101729.03;;;12.44;82.06
13593;BME280;6867;50.998;4.250;2023-05-28T02:18:37;101717.41;;;12.43;82.15
13593;BME280;6867;50.998;4.250;2023-05-28T02:21:05;101728.56;;;12.40;82.27
13593;BME280;6867;50.998;4.250;2023-05-28T02:23:32;101723.19;;;12.40;82.26
13593;BME280;6867;50.998;4.250;2023-05-28T02:25:58;101723.34;;;12.32;82.49
13593;BME280;6867;50.998;4.250;2023-05-28T02:28:26;101727.50;;;12.35;82.69
13593;BME280;6867;50.998;4.250;2023-05-28T02:30:54;101726.84;;;12.33;82.64
13593;BME280;6867;50.998;4.250;2023-05-28T02:33:21;101727.66;;;12.27;82.76
13593;BME280;6867;50.998;4.250;2023-05-28T02:35:48;101720.19;;;12.29;82.79
13593;BME280;6867;50.998;4.250;2023-05-28T02:38:15;101717.69;;;12.27;82.39
13593;BME280;6867;50.998;4.250;2023-05-28T02:40:42;101723.03;;;12.20;82.05
13593;BME280;6867;50.998;4.250;2023-05-28T02:43:08;101719.66;;;12.12;82.15
13593;BME280;6867;50.998;4.250;2023-05-28T02:45:35;101723.19;;;12.12;82.50
13593;BME280;6867;50.998;4.250;2023-05-28T02:48:04;101715.94;;;12.13;82.22
13593;BME280;6867;50.998;4.250;2023-05-28T02:50:30;101718.38;;;12.08;82.48
13593;BME280;6867;50.998;4.250;2023-05-28T02:52:57;101726.03;;;12.04;82.76
13593;BME280;6867;50.998;4.250;2023-05-28T02:55:24;101723.25;;;11.98;83.04
13593;BME280;6867;50.998;4.250;2023-05-28T02:57:50;101725.72;;;11.92;82.97
13593;BME280;6867;50.998;4.250;2023-05-28T03:00:18;101724.06;;;11.91;82.90
13593;BME280;6867;50.998;4.250;2023-05-28T03:02:45;101716.53;;;11.87;82.68
13593;BME280;6867;50.998;4.250;2023-05-28T03:05:13;101723.78;;;11.86;82.86
13593;BME280;6867;50.998;4.250;2023-05-28T03:07:40;101722.31;;;11.84;82.46
13593;BME280;6867;50.998;4.250;2023-05-28T03:10:07;101718.81;;;11.83;82.73
13593;BME280;6867;50.998;4.250;2023-05-28T03:12:34;101728.72;;;11.83;82.70
13593;BME280;6867;50.998;4.250;2023-05-28T03:15:01;101741.78;;;11.86;83.16
13593;BME280;6867;50.998;4.250;2023-05-28T03:17:29;101745.75;;;11.90;83.30
13593;BME280;6867;50.998;4.250;2023-05-28T03:19:56;101739.09;;;11.86;83.60
13593;BME280;6867;50.998;4.250;2023-05-28T03:22:24;101742.63;;;11.86;83.50
13593;BME280;6867;50.998;4.250;2023-05-28T03:24:51;101747.25;;;11.78;83.42
13593;BME280;6867;50.998;4.250;2023-05-28T03:27:17;101737.72;;;11.75;83.39
13593;BME280;6867;50.998;4.250;2023-05-28T03:29:44;101736.44;;;11.71;83.38
13593;BME280;6867;50.998;4.250;2023-05-28T03:32:11;101731.81;;;11.65;83.03
13593;BME280;6867;50.998;4.250;2023-05-28T03:34:37;101731.56;;;11.60;83.38
13593;BME280;6867;50.998;4.250;2023-05-28T03:37:04;101727.78;;;11.54;82.92
13593;BME280;6867;50.998;4.250;2023-05-28T03:39:32;101730.03;;;11.51;83.63
13593;BME280;6867;50.998;4.250;2023-05-28T03:41:59;101732.72;;;11.51;83.05
13593;BME280;6867;50.998;4.250;2023-05-28T03:44:26;101740.41;;;11.54;83.76
13593;BME280;6867;50.998;4.250;2023-05-28T03:46:53;101738.81;;;11.59;83.77
13593;BME280;6867;50.998;4.250;2023-05-28T03:49:20;101740.66;;;11.59;83.96
13593;BME280;6867;50.998;4.250;2023-05-28T03:51:47;101751.22;;;11.60;84.02
13593;BME280;6867;50.998;4.250;2023-05-28T03:54:13;101746.75;;;11.67;83.90
13593;BME280;6867;50.998;4.250;2023-05-28T03:56:41;101746.75;;;11.67;83.23
13593;BME280;6867;50.998;4.250;2023-05-28T03:59:08;101744.53;;;11.71;83.24
13593;BME280;6867;50.998;4.250;2023-05-28T04:01:35;101747.00;;;11.72;83.18
13593;BME280;6867;50.998;4.250;2023-05-28T04:04:03;101746.06;;;11.80;83.15
13593;BME280;6867;50.998;4.250;2023-05-28T04:06:29;101737.66;;;11.83;82.47
13593;BME280;6867;50.998;4.250;2023-05-28T04:08:58;101730.75;;;11.81;82.54
13593;BME280;6867;50.998;4.250;2023-05-28T04:11:25;101743.38;;;11.80;82.54
13593;BME280;6867;50.998;4.250;2023-05-28T04:13:55;101748.66;;;11.88;82.87
13593;BME280;6867;50.998;4.250;2023-05-28T04:16:24;101755.56;;;11.98;82.80
13593;BME280;6867;50.998;4.250;2023-05-28T04:18:51;101752.97;;;12.04;83.08
13593;BME280;6867;50.998;4.250;2023-05-28T04:21:18;101754.88;;;12.10;82.89
13593;BME280;6867;50.998;4.250;2023-05-28T04:23:45;101769.47;;;12.23;82.87
13593;BME280;6867;50.998;4.250;2023-05-28T04:26:11;101753.16;;;12.31;82.70
13593;BME280;6867;50.998;4.250;2023-05-28T04:28:38;101765.03;;;12.36;82.24
13593;BME280;6867;50.998;4.250;2023-05-28T04:31:07;101764.50;;;12.48;82.14
13593;BME280;6867;50.998;4.250;2023-05-28T04:33:34;101765.56;;;12.53;82.05
13593;BME280;6867;50.998;4.250;2023-05-28T04:36:02;101773.94;;;12.65;81.72
13593;BME280;6867;50.998;4.250;2023-05-28T04:38:29;101771.09;;;12.73;81.59
13593;BME280;6867;50.998;4.250;2023-05-28T04:40:57;101768.47;;;12.80;81.19
13593;BME280;6867;50.998;4.250;2023-05-28T04:43:25;101771.22;;;12.93;80.99
13593;BME280;6867;50.998;4.250;2023-05-28T04:45:52;101773.31;;;12.98;80.56
13593;BME280;6867;50.998;4.250;2023-05-28T04:48:20;101779.00;;;13.09;80.60
13593;BME280;6867;50.998;4.250;2023-05-28T04:50:46;101780.06;;;13.15;80.21
13593;BME280;6867;50.998;4.250;2023-05-28T04:53:15;101778.22;;;13.22;80.08
13593;BME280;6867;50.998;4.250;2023-05-28T04:55:42;101776.00;;;13.26;80.18
13593;BME280;6867;50.998;4.250;2023-05-28T04:58:09;101783.75;;;13.42;80.06
13593;BME280;6867;50.998;4.250;2023-05-28T05:00:37;101781.09;;;13.62;79.43
13593;BME280;6867;50.998;4.250;2023-05-28T05:03:04;101773.88;;;13.76;79.33
13593;BME280;6867;50.998;4.250;2023-05-28T05:05:32;101779.13;;;13.97;79.06
13593;BME280;6867;50.998;4.250;2023-05-28T05:07:58;101774.97;;;14.14;78.59
13593;BME280;6867;50.998;4.250;2023-05-28T05:10:27;101771.03;;;14.30;78.67
13593;BME280;6867;50.998;4.250;2023-05-28T05:12:54;101771.63;;;14.45;78.47
13593;BME280;6867;50.998;4.250;2023-05-28T05:15:20;101773.75;;;14.63;78.26
13593;BME280;6867;50.998;4.250;2023-05-28T05:17:47;101774.56;;;14.77;78.04
13593;BME280;6867;50.998;4.250;2023-05-28T05:20:14;101775.34;;;14.98;77.41
13593;BME280;6867;50.998;4.250;2023-05-28T05:22:42;101777.78;;;15.12;77.44
13593;BME280;6867;50.998;4.250;2023-05-28T05:25:09;101780.22;;;15.27;77.18
13593;BME280;6867;50.998;4.250;2023-05-28T05:27:35;101773.09;;;15.39;76.77
13593;BME280;6867;50.998;4.250;2023-05-28T05:30:02;101781.75;;;15.55;76.83
13593;BME280;6867;50.998;4.250;2023-05-28T05:32:30;101784.22;;;15.63;76.50
13593;BME280;6867;50.998;4.250;2023-05-28T05:34:57;101783.56;;;15.74;76.56
13593;BME280;6867;50.998;4.250;2023-05-28T05:37:24;101790.38;;;15.83;76.55
13593;BME280;6867;50.998;4.250;2023-05-28T05:39:52;101784.94;;;15.90;75.73
13593;BME280;6867;50.998;4.250;2023-05-28T05:42:18;101781.53;;;16.01;75.34
13593;BME280;6867;50.998;4.250;2023-05-28T05:44:46;101782.66;;;16.18;74.87
13593;BME280;6867;50.998;4.250;2023-05-28T05:47:13;101772.22;;;16.22;74.16
13593;BME280;6867;50.998;4.250;2023-05-28T05:49:39;101772.16;;;16.29;73.74
13593;BME280;6867;50.998;4.250;2023-05-28T05:52:06;101772.03;;;16.42;73.47
13593;BME280;6867;50.998;4.250;2023-05-28T05:54:33;101776.06;;;16.58;73.23
13593;BME280;6867;50.998;4.250;2023-05-28T05:57:01;101761.13;;;16.49;72.00
13593;BME280;6867;50.998;4.250;2023-05-28T05:59:28;101757.22;;;16.63;71.43
13593;BME280;6867;50.998;4.250;2023-05-28T06:01:55;101754.97;;;16.85;71.10
13593;BME280;6867;50.998;4.250;2023-05-28T06:04:22;101733.25;;;16.85;69.75
13593;BME280;6867;50.998;4.250;2023-05-28T06:06:48;101733.31;;;16.97;69.17
13593;BME280;6867;50.998;4.250;2023-05-28T06:09:15;101731.28;;;17.10;69.23
13593;BME280;6867;50.998;4.250;2023-05-28T06:11:42;101716.88;;;17.10;68.51
13593;BME280;6867;50.998;4.250;2023-05-28T06:14:10;101711.97;;;17.18;67.62
13593;BME280;6867;50.998;4.250;2023-05-28T06:16:36;101721.34;;;17.34;67.71
13593;BME280;6867;50.998;4.250;2023-05-28T06:19:03;101702.19;;;17.48;66.72
13593;BME280;6867;50.998;4.250;2023-05-28T06:21:30;101675.16;;;17.53;65.29
13593;BME280;6867;50.998;4.250;2023-05-28T06:23:57;101685.41;;;17.81;65.30
13593;BME280;6867;50.998;4.250;2023-05-28T06:26:23;101678.22;;;17.98;64.59
13593;BME280;6867;50.998;4.250;2023-05-28T06:28:50;101671.13;;;18.21;64.01
13593;BME280;6867;50.998;4.250;2023-05-28T06:31:18;101647.94;;;18.18;63.02
13593;BME280;6867;50.998;4.250;2023-05-28T06:33:45;101656.00;;;18.25;62.94
13593;BME280;6867;50.998;4.250;2023-05-28T06:36:11;101664.16;;;18.36;63.12
13593;BME280;6867;50.998;4.250;2023-05-28T06:38:38;101674.31;;;18.53;63.02
13593;BME280;6867;50.998;4.250;2023-05-28T06:41:05;101683.78;;;18.74;62.98
13593;BME280;6867;50.998;4.250;2023-05-28T06:43:32;101659.47;;;18.84;62.02
13593;BME280;6867;50.998;4.250;2023-05-28T06:45:58;101629.41;;;18.90;61.02
13593;BME280;6867;50.998;4.250;2023-05-28T06:48:27;101657.13;;;19.16;60.86
13593;BME280;6867;50.998;4.250;2023-05-28T06:50:54;101629.13;;;19.04;60.12
13593;BME280;6867;50.998;4.250;2023-05-28T06:53:21;101649.94;;;19.27;60.13
13593;BME280;6867;50.998;4.250;2023-05-28T06:55:48;101643.16;;;19.41;59.65
13593;BME280;6867;50.998;4.250;2023-05-28T06:58:15;101632.97;;;19.65;59.10
13593;BME280;6867;50.998;4.250;2023-05-28T07:00:41;101578.69;;;19.63;57.04
13593;BME280;6867;50.998;4.250;2023-05-28T07:03:08;101597.41;;;19.94;56.80
13593;BME280;6867;50.998;4.250;2023-05-28T07:05:36;101594.94;;;19.92;56.93
13593;BME280;6867;50.998;4.250;2023-05-28T07:08:03;101582.56;;;19.84;56.39
13593;BME280;6867;50.998;4.250;2023-05-28T07:10:30;101563.25;;;19.86;55.70
13593;BME280;6867;50.998;4.250;2023-05-28T07:12:56;101597.13;;;19.90;56.15
13593;BME280;6867;50.998;4.250;2023-05-28T07:15:23;101600.31;;;20.04;56.24
13593;BME280;6867;50.998;4.250;2023-05-28T07:17:50;101616.56;;;20.15;56.35
13593;BME280;6867;50.998;4.250;2023-05-28T07:20:17;101637.59;;;19.98;57.11
13593;BME280;6867;50.998;4.250;2023-05-28T07:22:45;101620.63;;;20.35;56.12
13593;BME280;6867;50.998;4.250;2023-05-28T07:25:11;101622.53;;;20.51;56.00
13593;BME280;6867;50.998;4.250;2023-05-28T07:27:38;101618.97;;;20.51;55.87
13593;BME280;6867;50.998;4.250;2023-05-28T07:30:06;101602.50;;;20.46;55.40
13593;BME280;6867;50.998;4.250;2023-05-28T07:32:33;101609.94;;;20.28;55.61
13593;BME280;6867;50.998;4.250;2023-05-28T07:35:00;101623.03;;;20.48;55.75
13593;BME280;6867;50.998;4.250;2023-05-28T07:37:26;101645.72;;;20.71;55.90
13593;BME280;6867;50.998;4.250;2023-05-28T07:39:54;101581.56;;;20.73;54.22
13593;BME280;6867;50.998;4.250;2023-05-28T07:42:21;101599.88;;;21.27;53.88
13593;BME280;6867;50.998;4.250;2023-05-28T07:44:48;101574.13;;;21.45;52.85
13593;BME280;6867;50.998;4.250;2023-05-28T07:47:14;101568.53;;;22.09;51.80
13593;BME280;6867;50.998;4.250;2023-05-28T07:49:41;101581.19;;;22.83;51.84
13593;BME280;6867;50.998;4.250;2023-05-28T07:52:08;101492.47;;;23.15;48.75
13593;BME280;6867;50.998;4.250;2023-05-28T07:54:36;101489.72;;;23.50;47.97
13593;BME280;6867;50.998;4.250;2023-05-28T07:57:06;101462.31;;;24.25;46.31
13593;BME280;6867;50.998;4.250;2023-05-28T07:59:33;101410.47;;;24.19;45.01
13593;BME280;6867;50.998;4.250;2023-05-28T08:01:59;101402.41;;;24.77;43.87
13593;BME280;6867;50.998;4.250;2023-05-28T08:04:27;101377.91;;;24.80;43.36
13593;BME280;6867;50.998;4.250;2023-05-28T08:06:54;101392.84;;;24.98;43.14
13593;BME280;6867;50.998;4.250;2023-05-28T08:09:21;101349.88;;;25.37;41.58
13593;BME280;6867;50.998;4.250;2023-05-28T08:11:48;101339.41;;;25.63;40.72
13593;BME280;6867;50.998;4.250;2023-05-28T08:14:17;101323.16;;;25.85;39.91
13593;BME280;6867;50.998;4.250;2023-05-28T08:16:44;101326.25;;;26.16;39.24
13593;BME280;6867;50.998;4.250;2023-05-28T08:19:11;101264.72;;;26.07;38.13
13593;BME280;6867;50.998;4.250;2023-05-28T08:21:37;101296.50;;;25.99;38.88
13593;BME280;6867;50.998;4.250;2023-05-28T08:24:05;101325.09;;;25.61;39.60
13593;BME280;6867;50.998;4.250;2023-05-28T08:26:32;101325.84;;;25.23;39.81
13593;BME280;6867;50.998;4.250;2023-05-28T08:28:59;101346.41;;;25.50;40.26
13593;BME280;6867;50.998;4.250;2023-05-28T08:31:27;101237.00;;;24.80;38.55
13593;BME280;6867;50.998;4.250;2023-05-28T08:33:54;101322.81;;;24.38;40.82
13593;BME280;6867;50.998;4.250;2023-05-28T08:36:20;101315.44;;;24.62;40.24
13593;BME280;6867;50.998;4.250;2023-05-28T08:38:47;101343.31;;;24.79;40.57
13593;BME280;6867;50.998;4.250;2023-05-28T08:41:14;101346.03;;;25.14;40.02
13593;BME280;6867;50.998;4.250;2023-05-28T08:43:41;101342.47;;;25.99;38.86
13593;BME280;6867;50.998;4.250;2023-05-28T08:46:07;101317.38;;;26.71;37.62
13593;BME280;6867;50.998;4.250;2023-05-28T08:48:37;101300.06;;;26.84;37.16
13593;BME280;6867;50.998;4.250;2023-05-28T08:51:07;101278.66;;;27.22;36.32
13593;BME280;6867;50.998;4.250;2023-05-28T08:53:40;101214.50;;;26.62;35.80
13593;BME280;6867;50.998;4.250;2023-05-28T08:56:08;101264.16;;;26.43;36.98
13593;BME280;6867;50.998;4.250;2023-05-28T08:58:34;101310.69;;;26.77;37.34
13593;BME280;6867;50.998;4.250;2023-05-28T09:01:04;101296.13;;;27.31;36.50
13593;BME280;6867;50.998;4.250;2023-05-28T09:03:33;101285.66;;;26.60;37.27
13593;BME280;6867;50.998;4.250;2023-05-28T09:06:01;101268.84;;;26.89;36.69
13593;BME280;6867;50.998;4.250;2023-05-28T09:08:29;101267.66;;;26.48;36.64
13593;BME280;6867;50.998;4.250;2023-05-28T09:10:56;101283.72;;;26.88;36.31
13593;BME280;6867;50.998;4.250;2023-05-28T09:13:23;101277.66;;;26.58;36.81
13593;BME280;6867;50.998;4.250;2023-05-28T09:15:51;101306.13;;;27.27;36.16
13593;BME280;6867;50.998;4.250;2023-05-28T09:18:19;101280.09;;;27.84;35.22
13593;BME280;6867;50.998;4.250;2023-05-28T09:20:46;101246.34;;;27.87;34.85
13593;BME280;6867;50.998;4.250;2023-05-28T09:23:16;101287.69;;;28.00;34.97
13593;BME280;6867;50.998;4.250;2023-05-28T09:25:43;101272.66;;;27.84;35.12
13593;BME280;6867;50.998;4.250;2023-05-28T09:28:11;101315.00;;;27.52;36.19
13593;BME280;6867;50.998;4.250;2023-05-28T09:30:39;101283.34;;;27.36;35.67
13593;BME280;6867;50.998;4.250;2023-05-28T09:33:07;101255.94;;;26.38;36.18
13593;BME280;6867;50.998;4.250;2023-05-28T09:35:34;101265.41;;;25.42;37.35
13593;BME280;6867;50.998;4.250;2023-05-28T09:38:03;101272.75;;;24.75;38.51
13593;BME280;6867;50.998;4.250;2023-05-28T09:40:31;101327.19;;;25.26;38.68
13593;BME280;6867;50.998;4.250;2023-05-28T09:42:58;101314.44;;;25.11;38.83
13593;BME280;6867;50.998;4.250;2023-05-28T09:45:26;101386.44;;;25.13;40.00
13593;BME280;6867;50.998;4.250;2023-05-28T09:47:53;101363.38;;;25.09;39.64
13593;BME280;6867;50.998;4.250;2023-05-28T09:50:20;101364.97;;;25.39;39.55
13593;BME280;6867;50.998;4.250;2023-05-28T09:52:47;101368.81;;;25.14;39.68
13593;BME280;6867;50.998;4.250;2023-05-28T09:55:14;101368.53;;;25.16;39.89
13593;BME280;6867;50.998;4.250;2023-05-28T09:57:46;101405.81;;;25.51;40.38
13593;BME280;6867;50.998;4.250;2023-05-28T10:00:20;101332.38;;;25.27;38.91
13593;BME280;6867;50.998;4.250;2023-05-28T10:02:58;101341.09;;;24.81;39.46
13593;BME280;6867;50.998;4.250;2023-05-28T10:05:28;101324.16;;;24.69;39.03
13593;BME280;6867;50.998;4.250;2023-05-28T10:08:00;101416.22;;;25.01;40.71
13593;BME280;6867;50.998;4.250;2023-05-28T10:10:27;101414.81;;;25.32;40.58
13593;BME280;6867;50.998;4.250;2023-05-28T10:12:57;101353.66;;;25.41;38.85
13593;BME280;6867;50.998;4.250;2023-05-28T10:15:25;101351.22;;;25.15;39.24
13593;BME280;6867;50.998;4.250;2023-05-28T10:17:52;101318.03;;;25.06;38.95
13593;BME280;6867;50.998;4.250;2023-05-28T10:20:19;101402.34;;;25.40;40.08
13593;BME280;6867;50.998;4.250;2023-05-28T10:22:46;101359.78;;;25.38;39.36
13593;BME280;6867;50.998;4.250;2023-05-28T10:25:14;101374.56;;;25.18;39.94
13593;BME280;6867;50.998;4.250;2023-05-28T10:27:44;101380.47;;;25.54;39.63
13593;BME280;6867;50.998;4.250;2023-05-28T10:30:30;101372.44;;;25.81;39.27
13593;BME280;6867;50.998;4.250;2023-05-28T10:32:56;101374.47;;;25.95;38.83
13593;BME280;6867;50.998;4.250;2023-05-28T10:35:23;101367.56;;;25.97;38.79
13593;BME280;6867;50.998;4.250;2023-05-28T10:37:50;101312.38;;;25.65;37.83
13593;BME280;6867;50.998;4.250;2023-05-28T10:40:22;101277.53;;;25.79;37.19
13593;BME280;6867;50.998;4.250;2023-05-28T10:42:49;101300.16;;;25.95;37.57
13593;BME280;6867;50.998;4.250;2023-05-28T10:45:17;101303.25;;;25.69;37.63
13593;BME280;6867;50.998;4.250;2023-05-28T10:47:51;101385.16;;;25.53;39.72
13593;BME280;6867;50.998;4.250;2023-05-28T10:50:19;101311.19;;;25.71;37.89
13593;BME280;6867;50.998;4.250;2023-05-28T10:53:05;101336.69;;;26.00;38.01
13593;BME280;6867;50.998;4.250;2023-05-28T10:55:48;101304.31;;;26.11;37.45
13593;BME280;6867;50.998;4.250;2023-05-28T10:58:28;101334.28;;;26.50;37.63
13593;BME280;6867;50.998;4.250;2023-05-28T11:01:03;101275.00;;;26.53;36.71
13593;BME280;6867;50.998;4.250;2023-05-28T11:03:44;101306.53;;;26.47;37.07
13593;BME280;6867;50.998;4.250;2023-05-28T11:06:12;101267.22;;;26.08;37.26
13593;BME280;6867;50.998;4.250;2023-05-28T11:08:41;101308.66;;;25.74;37.87
13593;BME280;6867;50.998;4.250;2023-05-28T11:11:10;101329.63;;;26.13;37.93
13593;BME280;6867;50.998;4.250;2023-05-28T11:13:38;101293.69;;;26.56;36.70
13593;BME280;6867;50.998;4.250;2023-05-28T11:16:08;101282.78;;;26.65;36.99
13593;BME280;6867;50.998;4.250;2023-05-28T11:18:35;101334.31;;;26.64;37.44
13593;BME280;6867;50.998;4.250;2023-05-28T11:21:02;101275.53;;;26.55;36.16
13593;BME280;6867;50.998;4.250;2023-05-28T11:23:29;101305.66;;;26.65;36.63
13593;BME280;6867;50.998;4.250;2023-05-28T11:25:56;101196.34;;;26.47;34.60
13593;BME280;6867;50.998;4.250;2023-05-28T11:28:23;101239.13;;;26.99;35.00
13593;BME280;6867;50.998;4.250;2023-05-28T11:30:50;101208.19;;;26.75;34.44
13593;BME280;6867;50.998;4.250;2023-05-28T11:33:19;101228.59;;;26.74;34.83
13593;BME280;6867;50.998;4.250;2023-05-28T11:35:45;101221.16;;;26.88;34.69
13593;BME280;6867;50.998;4.250;2023-05-28T11:38:22;101199.28;;;26.92;33.65
13593;BME280;6867;50.998;4.250;2023-05-28T11:40:48;101183.06;;;27.04;33.37
13593;BME280;6867;50.998;4.250;2023-05-28T11:43:15;101194.59;;;27.06;33.62
13593;BME280;6867;50.998;4.250;2023-05-28T11:45:42;101252.91;;;27.27;34.48
13593;BME280;6867;50.998;4.250;2023-05-28T11:48:11;101229.22;;;27.12;34.77
13593;BME280;6867;50.998;4.250;2023-05-28T11:50:39;101230.34;;;27.25;34.22
13593;BME280;6867;50.998;4.250;2023-05-28T11:53:05;101174.16;;;27.21;33.26
13593;BME280;6867;50.998;4.250;2023-05-28T11:55:32;101222.66;;;27.08;33.91
13593;BME280;6867;50.998;4.250;2023-05-28T11:57:59;101265.56;;;27.42;34.67
13593;BME280;6867;50.998;4.250;2023-05-28T12:00:30;101247.16;;;27.51;33.92
13593;BME280;6867;50.998;4.250;2023-05-28T12:02:59;101162.44;;;27.51;32.70
13593;BME280;6867;50.998;4.250;2023-05-28T12:05:26;101244.28;;;27.56;33.65
13593;BME280;6867;50.998;4.250;2023-05-28T12:07:54;101195.69;;;27.33;33.20
13593;BME280;6867;50.998;4.250;2023-05-28T12:10:22;101227.09;;;27.73;33.42
13593;BME280;6867;50.998;4.250;2023-05-28T12:12:50;101144.50;;;27.63;31.92
13593;BME280;6867;50.998;4.250;2023-05-28T12:15:20;101114.41;;;27.52;31.57
13593;BME280;6867;50.998;4.250;2023-05-28T12:17:52;101129.75;;;27.67;31.32
13593;BME280;6867;50.998;4.250;2023-05-28T12:20:29;101156.06;;;27.42;32.21
13593;BME280;6867;50.998;4.250;2023-05-28T12:23:04;101114.06;;;26.40;32.90
13593;BME280;6867;50.998;4.250;2023-05-28T12:25:45;101220.31;;;26.88;33.93
13593;BME280;6867;50.998;4.250;2023-05-28T12:28:13;101230.78;;;27.18;34.01
13593;BME280;6867;50.998;4.250;2023-05-28T12:30:41;101176.66;;;27.45;32.64
13593;BME280;6867;50.998;4.250;2023-05-28T12:33:09;101188.09;;;27.52;33.16
13593;BME280;6867;50.998;4.250;2023-05-28T12:35:35;101212.25;;;27.33;33.02
13593;BME280;6867;50.998;4.250;2023-05-28T12:38:03;101188.56;;;27.68;32.85
13593;BME280;6867;50.998;4.250;2023-05-28T12:40:30;101154.72;;;27.62;31.98
13593;BME280;6867;50.998;4.250;2023-05-28T12:42:57;101152.09;;;27.57;31.73
13593;BME280;6867;50.998;4.250;2023-05-28T12:45:23;101154.09;;;27.43;32.28
13593;BME280;6867;50.998;4.250;2023-05-28T12:47:50;101211.34;;;27.73;32.64
13593;BME280;6867;50.998;4.250;2023-05-28T12:50:17;101207.41;;;28.42;31.86
13593;BME280;6867;50.998;4.250;2023-05-28T12:52:43;101141.84;;;27.94;30.66
13593;BME280;6867;50.998;4.250;2023-05-28T12:55:11;101208.44;;;28.23;32.28
13593;BME280;6867;50.998;4.250;2023-05-28T12:57:38;101223.75;;;28.52;31.76
13593;BME280;6867;50.998;4.250;2023-05-28T13:00:06;101170.44;;;28.60;30.44
13593;BME280;6867;50.998;4.250;2023-05-28T13:02:36;101167.22;;;28.67;30.71